sensor_id;sensor_type;location;lat;lon;timestamp;temperature;humidity
6956;DHT22;50345;51.136;16.886;2023-09-08T08:31:54;22.90;99.90
6956;DHT22;50345;51.136;16.886;2023-09-08T08:34:20;22.80;99.90
6956;DHT22;50345;51.136;16.886;2023-09-08T08:36:45;22.80;99.90
6956;DHT22;50345;51.136;16.886;2023-09-08T08:39:11;22.90;99.90
6956;DHT22;50345;51.136;16.886;2023-09-08T08:44:07;23.20;99.90
6956;DHT22;50345;51.136;16.886;2023-09-08T08:58:46;24.10;99.90
6956;DHT22;50345;51.136;16.886;2023-09-08T09:01:13;24.20;99.90
6956;DHT22;50345;51.136;16.886;2023-09-08T09:03:41;24.30;99.90
6956;DHT22;50345;51.136;16.886;2023-09-08T09:06:09;24.40;99.90
6956;DHT22;50345;51.136;16.886;2023-09-08T09:08:35;24.50;99.90
6956;DHT22;50345;51.136;16.886;2023-09-08T09:11:01;24.60;99.90
6956;DHT22;50345;51.136;16.886;2023-09-08T09:13:26;24.70;99.90
6956;DHT22;50345;51.136;16.886;2023-09-08T09:15:58;24.90;99.90
6956;DHT22;50345;51.136;16.886;2023-09-08T09:38:08;26.70;99.90
6956;DHT22;50345;51.136;16.886;2023-09-08T09:40:34;26.80;99.90
6956;DHT22;50345;51.136;16.886;2023-09-08T09:43:00;27.00;99.90
6956;DHT22;50345;51.136;16.886;2023-09-08T09:45:26;27.20;99.90
6956;DHT22;50345;51.136;16.886;2023-09-08T09:47:52;27.50;99.90
6956;DHT22;50345;51.136;16.886;2023-09-08T09:50:40;27.70;99.90
6956;DHT22;50345;51.136;16.886;2023-09-08T09:53:14;27.90;99.90
6956;DHT22;50345;51.136;16.886;2023-09-08T09:55:41;28.10;99.90
6956;DHT22;50345;51.136;16.886;2023-09-08T10:00:34;28.50;94.50
6956;DHT22;50345;51.136;16.886;2023-09-08T10:03:01;28.80;94.90
6956;DHT22;50345;51.136;16.886;2023-09-08T10:05:27;29.10;92.00
6956;DHT22;50345;51.136;16.886;2023-09-08T10:07:53;29.20;90.10
6956;DHT22;50345;51.136;16.886;2023-09-08T10:12:51;29.50;84.80
6956;DHT22;50345;51.136;16.886;2023-09-08T10:15:21;29.60;85.50
6956;DHT22;50345;51.136;16.886;2023-09-08T10:17:54;29.90;84.70
6956;DHT22;50345;51.136;16.886;2023-09-08T11:02:49;32.10;96.50
6956;DHT22;50345;51.136;16.886;2023-09-08T11:05:16;32.40;95.00
6956;DHT22;50345;51.136;16.886;2023-09-08T11:07:43;32.70;94.30
6956;DHT22;50345;51.136;16.886;2023-09-08T11:27:22;38.70;40.40
6956;DHT22;50345;51.136;16.886;2023-09-08T11:29:48;38.60;40.30
6956;DHT22;50345;51.136;16.886;2023-09-08T11:32:14;38.70;40.10
6956;DHT22;50345;51.136;16.886;2023-09-08T11:34:40;39.00;39.10
6956;DHT22;50345;51.136;16.886;2023-09-08T11:37:14;39.20;39.80
6956;DHT22;50345;51.136;16.886;2023-09-08T11:39:44;39.30;40.20
6956;DHT22;50345;51.136;16.886;2023-09-08T11:42:12;39.60;38.80
6956;DHT22;50345;51.136;16.886;2023-09-08T13:54:35;42.30;30.20
6956;DHT22;50345;51.136;16.886;2023-09-08T13:57:02;43.00;29.10
6956;DHT22;50345;51.136;16.886;2023-09-08T14:14:08;45.00;28.10
6956;DHT22;50345;51.136;16.886;2023-09-08T14:19:00;45.70;28.30
6956;DHT22;50345;51.136;16.886;2023-09-08T14:23:52;46.30;28.60
6956;DHT22;50345;51.136;16.886;2023-09-08T14:26:17;46.80;29.40
6956;DHT22;50345;51.136;16.886;2023-09-08T14:28:45;47.60;51.70
6956;DHT22;50345;51.136;16.886;2023-09-08T14:43:26;49.20;26.10
6956;DHT22;50345;51.136;16.886;2023-09-08T14:45:52;49.30;26.30
6956;DHT22;50345;51.136;16.886;2023-09-08T14:48:19;49.70;26.30
6956;DHT22;50345;51.136;16.886;2023-09-08T14:50:45;49.80;25.90
6956;DHT22;50345;51.136;16.886;2023-09-08T14:53:10;50.20;25.90
6956;DHT22;50345;51.136;16.886;2023-09-08T15:56:31;43.40;27.80
6956;DHT22;50345;51.136;16.886;2023-09-08T15:58:57;41.00;29.80
6956;DHT22;50345;51.136;16.886;2023-09-08T16:01:23;39.30;31.80
6956;DHT22;50345;51.136;16.886;2023-09-08T16:03:49;37.70;33.60
